createdAt,value
2022-08-26T00:00:14.119Z,99.90
2022-08-26T00:05:17.759Z,99.90
2022-08-26T00:10:22.615Z,99.90
2022-08-26T00:15:28.928Z,99.90
2022-08-26T00:20:34.831Z,99.90
2022-08-26T00:25:42.546Z,99.90
2022-08-26T00:30:48.076Z,99.90
2022-08-26T00:35:54.565Z,99.90
2022-08-26T00:41:00.448Z,99.90
2022-08-26T00:46:09.254Z,99.90
2022-08-26T00:51:18.175Z,99.90
2022-08-26T00:56:27.482Z,99.90
2022-08-26T01:01:31.197Z,99.90
2022-08-26T01:06:34.537Z,99.90
2022-08-26T01:11:39.711Z,99.90
2022-08-26T01:16:44.271Z,99.90
2022-08-26T01:21:53.201Z,99.90
2022-08-26T01:27:01.519Z,99.90
2022-08-26T01:32:08.473Z,99.90
2022-08-26T01:37:15.929Z,99.90
2022-08-26T01:42:23.372Z,99.90
2022-08-26T01:47:30.257Z,99.90
2022-08-26T01:52:37.076Z,99.90
2022-08-26T01:57:42.054Z,99.90
2022-08-26T02:02:49.261Z,99.90
2022-08-26T02:07:52.257Z,99.90
2022-08-26T02:12:56.571Z,99.90
2022-08-26T02:18:00.545Z,99.90
2022-08-26T02:23:03.931Z,99.90
2022-08-26T02:28:08.251Z,99.90
2022-08-26T02:33:11.647Z,99.90
2022-08-26T02:38:14.646Z,99.90
2022-08-26T02:43:23.868Z,99.90
2022-08-26T02:48:34.714Z,99.90
2022-08-26T02:53:38.767Z,99.90
2022-08-26T02:58:43.568Z,99.90
2022-08-26T03:03:46.425Z,99.90
2022-08-26T03:08:52.821Z,99.90
2022-08-26T03:13:57.121Z,99.90
2022-08-26T03:19:00.951Z,99.90
2022-08-26T03:24:04.147Z,99.90
2022-08-26T03:29:25.975Z,99.90
2022-08-26T03:34:31.947Z,99.90
2022-08-26T03:39:35.192Z,99.90
2022-08-26T03:44:42.240Z,99.90
2022-08-26T03:49:45.330Z,99.90
2022-08-26T03:54:48.226Z,99.90
2022-08-26T03:59:52.824Z,99.90
2022-08-26T04:04:56.586Z,99.90
2022-08-26T04:10:00.129Z,99.90
2022-08-26T04:15:05.473Z,99.90
2022-08-26T04:20:09.739Z,99.90
2022-08-26T04:25:13.779Z,99.90
2022-08-26T04:30:18.190Z,99.90
2022-08-26T04:35:25.457Z,99.90
2022-08-26T04:40:29.143Z,99.90
2022-08-26T04:45:36.264Z,99.90
2022-08-26T04:50:39.239Z,99.90
2022-08-26T04:55:48.522Z,99.90
2022-08-26T05:00:56.329Z,99.90
2022-08-26T05:05:59.726Z,99.90
2022-08-26T05:11:07.067Z,99.90
2022-08-26T05:16:15.502Z,99.90
2022-08-26T05:21:20.874Z,99.90
2022-08-26T05:26:25.796Z,99.90
2022-08-26T05:31:32.595Z,99.90
2022-08-26T05:36:36.977Z,99.90
2022-08-26T05:41:42.884Z,99.90
2022-08-26T05:46:49.400Z,99.90
2022-08-26T05:51:54.129Z,99.90
2022-08-26T05:56:57.561Z,99.90
2022-08-26T06:02:03.200Z,99.90
2022-08-26T06:07:06.256Z,99.90
2022-08-26T06:12:12.919Z,99.90
2022-08-26T06:17:19.334Z,99.90
2022-08-26T06:22:40.273Z,99.90
2022-08-26T06:27:43.540Z,99.90
2022-08-26T06:32:49.431Z,99.90
2022-08-26T06:37:52.423Z,99.90
2022-08-26T06:42:55.485Z,99.90
2022-08-26T06:47:59.727Z,99.90
2022-08-26T06:53:02.690Z,99.90
2022-08-26T06:58:06.326Z,99.90
2022-08-26T07:03:11.333Z,99.90
2022-08-26T07:08:14.635Z,99.90
2022-08-26T07:13:18.193Z,99.90
2022-08-26T07:18:36.718Z,99.90
2022-08-26T07:23:40.196Z,99.90
2022-08-26T07:28:44.216Z,99.90
2022-08-26T07:33:49.115Z,99.90
2022-08-26T07:38:53.898Z,99.90
2022-08-26T07:43:56.966Z,99.90
2022-08-26T07:49:01.768Z,99.90
2022-08-26T07:54:05.501Z,99.90
2022-08-26T07:59:13.560Z,99.90
2022-08-26T08:04:26.122Z,99.90
2022-08-26T08:09:29.516Z,99.90
2022-08-26T08:14:32.442Z,99.90
2022-08-26T08:19:39.170Z,99.90
2022-08-26T08:24:42.715Z,99.90
2022-08-26T08:29:46.539Z,99.90
2022-08-26T08:34:51.001Z,99.90
2022-08-26T08:39:53.975Z,99.90
2022-08-26T08:44:59.627Z,99.90
2022-08-26T08:50:12.979Z,99.90
2022-08-26T08:55:18.274Z,99.90
2022-08-26T09:00:30.296Z,99.90
2022-08-26T09:05:42.610Z,99.90
2022-08-26T09:10:53.985Z,99.90
2022-08-26T09:16:06.744Z,99.90
2022-08-26T09:21:14.141Z,99.90
2022-08-26T09:26:19.965Z,99.90
2022-08-26T09:31:26.037Z,99.90
2022-08-26T09:36:41.494Z,99.90
2022-08-26T09:41:44.522Z,99.90
2022-08-26T09:46:56.042Z,99.90
2022-08-26T09:52:15.090Z,99.90
2022-08-26T09:57:22.427Z,99.90
2022-08-26T10:02:36.953Z,99.90
2022-08-26T10:07:45.173Z,99.90
2022-08-26T10:12:56.429Z,99.90
2022-08-26T10:18:05.439Z,99.90
2022-08-26T10:23:15.346Z,99.90
2022-08-26T10:28:23.729Z,99.90
2022-08-26T10:33:26.756Z,99.90
2022-08-26T10:38:35.590Z,99.90
2022-08-26T10:43:43.782Z,99.30
2022-08-26T10:48:52.126Z,98.40
2022-08-26T10:53:59.893Z,98.00
2022-08-26T10:59:12.510Z,97.70
2022-08-26T11:04:29.360Z,96.90
2022-08-26T11:09:49.695Z,96.70
2022-08-26T11:14:58.891Z,96.40
2022-08-26T11:20:08.588Z,96.00
2022-08-26T11:25:15.220Z,95.20
2022-08-26T11:30:35.159Z,95.30
2022-08-26T11:35:52.233Z,94.80
2022-08-26T11:41:11.122Z,94.60
2022-08-26T11:46:25.002Z,94.00
2022-08-26T11:51:28.069Z,93.10
2022-08-26T11:56:36.130Z,92.70
2022-08-26T12:01:41.480Z,92.30
2022-08-26T12:06:49.737Z,91.60
2022-08-26T12:12:12.098Z,91.90
2022-08-26T12:17:17.791Z,91.40
2022-08-26T12:22:27.213Z,90.70
2022-08-26T12:27:33.634Z,90.10
2022-08-26T12:32:58.171Z,88.70
2022-08-26T12:38:02.402Z,87.90
2022-08-26T12:43:08.904Z,87.20
2022-08-26T12:48:13.837Z,86.50
2022-08-26T12:53:24.079Z,85.50
2022-08-26T12:58:31.611Z,85.30
2022-08-26T13:03:44.477Z,84.90
2022-08-26T13:08:48.442Z,84.60
2022-08-26T13:13:56.621Z,83.40
2022-08-26T13:19:01.629Z,81.90
2022-08-26T13:24:07.348Z,80.60
2022-08-26T13:29:12.610Z,80.00
2022-08-26T13:34:19.063Z,80.90
2022-08-26T13:39:22.608Z,83.30
2022-08-26T13:44:27.319Z,91.60
2022-08-26T13:49:30.317Z,99.90
2022-08-26T13:54:33.324Z,99.90
2022-08-26T13:59:37.547Z,99.90
2022-08-26T14:04:41.531Z,99.90
2022-08-26T14:09:44.506Z,99.90
2022-08-26T14:14:48.821Z,99.90
2022-08-26T14:19:52.394Z,99.90
2022-08-26T14:24:56.440Z,99.90
2022-08-26T14:30:00.784Z,99.90
2022-08-26T14:35:03.879Z,99.90
2022-08-26T14:40:08.999Z,99.90
2022-08-26T14:45:15.949Z,99.90
2022-08-26T14:50:22.672Z,99.90
2022-08-26T14:55:25.764Z,99.90
2022-08-26T15:00:31.131Z,99.90
2022-08-26T15:05:35.171Z,99.90
2022-08-26T15:10:38.625Z,99.90
2022-08-26T15:15:42.941Z,99.90
2022-08-26T15:20:45.823Z,99.90
2022-08-26T15:25:48.847Z,99.90
2022-08-26T15:30:53.157Z,99.90
2022-08-26T15:35:56.122Z,99.90
2022-08-26T15:41:02.931Z,99.90
2022-08-26T15:46:11.522Z,99.90
2022-08-26T15:51:22.318Z,99.90
2022-08-26T15:56:26.690Z,99.90
2022-08-26T16:01:32.583Z,99.90
2022-08-26T16:06:37.568Z,99.90
2022-08-26T16:11:40.499Z,99.90
2022-08-26T16:16:44.815Z,99.90
2022-08-26T16:21:47.992Z,99.90
2022-08-26T16:26:50.895Z,99.90
2022-08-26T16:31:55.563Z,99.90
2022-08-26T16:36:58.525Z,99.90
2022-08-26T16:42:01.517Z,99.90
2022-08-26T16:47:05.953Z,99.90
2022-08-26T16:52:10.502Z,99.90
2022-08-26T16:57:14.511Z,99.90
2022-08-26T17:02:18.791Z,99.90
2022-08-26T17:07:21.692Z,99.90
2022-08-26T17:12:24.741Z,99.90
2022-08-26T17:17:29.390Z,99.90
2022-08-26T17:22:34.649Z,99.90
2022-08-26T17:27:37.770Z,99.90
2022-08-26T17:32:43.573Z,99.90
2022-08-26T17:37:47.536Z,99.90
2022-08-26T17:42:51.066Z,99.90
2022-08-26T17:47:57.055Z,99.90
2022-08-26T17:53:00.139Z,99.90
2022-08-26T17:58:10.291Z,99.90
2022-08-26T18:03:19.990Z,99.90
2022-08-26T18:08:26.010Z,99.90
2022-08-26T18:13:28.865Z,99.90
2022-08-26T18:18:33.707Z,99.90
2022-08-26T18:23:36.989Z,99.90
2022-08-26T18:28:39.979Z,99.90
2022-08-26T18:33:44.705Z,99.90
2022-08-26T18:38:50.392Z,99.90
2022-08-26T18:43:54.514Z,99.90
2022-08-26T18:48:58.834Z,99.90
2022-08-26T18:54:03.616Z,99.90
2022-08-26T18:59:07.934Z,99.90
2022-08-26T19:04:15.404Z,99.90
2022-08-26T19:09:19.769Z,99.90
2022-08-26T19:14:23.852Z,99.90
2022-08-26T19:19:28.543Z,99.90
2022-08-26T19:24:31.825Z,99.90
2022-08-26T19:29:36.757Z,99.90
2022-08-26T19:34:41.010Z,99.90
2022-08-26T19:39:43.906Z,99.90
2022-08-26T19:45:04.582Z,99.90
2022-08-26T19:50:12.478Z,99.90
2022-08-26T19:55:18.523Z,99.90
2022-08-26T20:00:24.509Z,99.90
2022-08-26T20:05:29.111Z,99.90
2022-08-26T20:10:32.014Z,99.90
2022-08-26T20:15:35.129Z,99.90
2022-08-26T20:20:56.907Z,99.90
2022-08-26T20:25:59.782Z,99.90
2022-08-26T20:31:04.281Z,99.90
2022-08-26T20:36:09.635Z,99.90
2022-08-26T20:41:12.724Z,99.90
2022-08-26T20:46:17.910Z,99.90
2022-08-26T20:51:24.856Z,99.90
2022-08-26T20:56:28.086Z,99.90
2022-08-26T21:01:34.544Z,99.90
2022-08-26T21:06:39.546Z,99.90
2022-08-26T21:11:45.742Z,99.90
2022-08-26T21:16:48.914Z,99.90
2022-08-26T21:21:53.193Z,99.90
2022-08-26T21:26:56.095Z,99.90
2022-08-26T21:31:59.113Z,99.90
2022-08-26T21:37:03.396Z,99.90
2022-08-26T21:42:11.933Z,99.90
2022-08-26T21:47:14.861Z,99.90
2022-08-26T21:52:21.211Z,99.90
2022-08-26T21:57:24.073Z,99.90
2022-08-26T22:02:27.017Z,99.90
2022-08-26T22:07:31.315Z,99.90
2022-08-26T22:12:34.265Z,99.90
2022-08-26T22:17:37.822Z,99.90
2022-08-26T22:22:42.039Z,99.90
2022-08-26T22:27:45.631Z,99.90
2022-08-26T22:32:48.621Z,99.90
2022-08-26T22:37:52.879Z,99.90
2022-08-26T22:43:00.473Z,99.90
2022-08-26T22:48:05.014Z,99.90
2022-08-26T22:53:09.504Z,99.90
2022-08-26T22:58:13.519Z,99.90
2022-08-26T23:03:17.557Z,99.90
2022-08-26T23:08:22.338Z,99.90
2022-08-26T23:13:25.230Z,99.90
2022-08-26T23:18:28.170Z,99.90
2022-08-26T23:23:32.518Z,99.90
2022-08-26T23:28:36.487Z,99.90
2022-08-26T23:33:58.604Z,99.90
2022-08-26T23:39:03.199Z,99.90
2022-08-26T23:44:06.503Z,99.90
2022-08-26T23:49:09.666Z,99.90
2022-08-26T23:54:13.967Z,99.90
2022-08-26T23:59:16.866Z,99.90
